sensor_id;sensor_type;location;lat;lon;timestamp;P1;durP1;ratioP1;P2;durP2;ratioP2
20241;SDS011;10279;46.388;8.116;2023-03-23T00:01:19;4.30;;;2.90;;
20241;SDS011;10279;46.388;8.116;2023-03-23T00:03:46;3.53;;;3.00;;
20241;SDS011;10279;46.388;8.116;2023-03-23T00:06:13;6.13;;;3.40;;
20241;SDS011;10279;46.388;8.116;2023-03-23T00:08:46;4.73;;;3.07;;
20241;SDS011;10279;46.388;8.116;2023-03-23T00:11:18;3.47;;;3.10;;
20241;SDS011;10279;46.388;8.116;2023-03-23T00:13:45;2.80;;;2.60;;
20241;SDS011;10279;46.388;8.116;2023-03-23T00:16:12;3.60;;;3.03;;
20241;SDS011;10279;46.388;8.116;2023-03-23T00:18:48;3.20;;;2.90;;
20241;SDS011;10279;46.388;8.116;2023-03-23T00:21:24;4.57;;;3.53;;
20241;SDS011;10279;46.388;8.116;2023-03-23T00:23:58;3.87;;;2.53;;
20241;SDS011;10279;46.388;8.116;2023-03-23T00:26:24;6.43;;;3.03;;
20241;SDS011;10279;46.388;8.116;2023-03-23T00:28:53;3.63;;;2.97;;
20241;SDS011;10279;46.388;8.116;2023-03-23T00:31:20;5.23;;;3.10;;
20241;SDS011;10279;46.388;8.116;2023-03-23T00:33:46;3.60;;;3.07;;
20241;SDS011;10279;46.388;8.116;2023-03-23T00:36:12;3.93;;;2.93;;
20241;SDS011;10279;46.388;8.116;2023-03-23T00:38:40;3.40;;;3.03;;
20241;SDS011;10279;46.388;8.116;2023-03-23T00:41:09;5.70;;;3.20;;
20241;SDS011;10279;46.388;8.116;2023-03-23T00:43:36;5.30;;;3.37;;
20241;SDS011;10279;46.388;8.116;2023-03-23T00:46:04;4.23;;;2.97;;
20241;SDS011;10279;46.388;8.116;2023-03-23T00:48:35;4.47;;;3.13;;
20241;SDS011;10279;46.388;8.116;2023-03-23T00:51:02;4.67;;;3.40;;
20241;SDS011;10279;46.388;8.116;2023-03-23T00:53:34;4.60;;;3.50;;
20241;SDS011;10279;46.388;8.116;2023-03-23T00:56:00;3.63;;;3.17;;
20241;SDS011;10279;46.388;8.116;2023-03-23T00:58:26;4.23;;;3.10;;
20241;SDS011;10279;46.388;8.116;2023-03-23T01:00:53;4.00;;;2.90;;
20241;SDS011;10279;46.388;8.116;2023-03-23T01:03:19;4.10;;;3.07;;
20241;SDS011;10279;46.388;8.116;2023-03-23T01:05:45;6.73;;;3.17;;
20241;SDS011;10279;46.388;8.116;2023-03-23T01:08:12;3.10;;;2.87;;
20241;SDS011;10279;46.388;8.116;2023-03-23T01:10:39;4.17;;;2.77;;
20241;SDS011;10279;46.388;8.116;2023-03-23T01:13:06;3.17;;;2.60;;
20241;SDS011;10279;46.388;8.116;2023-03-23T01:15:32;3.47;;;3.00;;
20241;SDS011;10279;46.388;8.116;2023-03-23T01:17:59;4.70;;;3.50;;
20241;SDS011;10279;46.388;8.116;2023-03-23T01:20:25;3.00;;;2.60;;
20241;SDS011;10279;46.388;8.116;2023-03-23T01:22:54;4.50;;;3.23;;
20241;SDS011;10279;46.388;8.116;2023-03-23T01:25:26;3.87;;;3.00;;
20241;SDS011;10279;46.388;8.116;2023-03-23T01:27:52;3.30;;;2.80;;
20241;SDS011;10279;46.388;8.116;2023-03-23T01:30:19;4.70;;;3.23;;
20241;SDS011;10279;46.388;8.116;2023-03-23T01:32:45;5.07;;;3.07;;
20241;SDS011;10279;46.388;8.116;2023-03-23T01:35:12;4.27;;;3.10;;
20241;SDS011;10279;46.388;8.116;2023-03-23T01:37:39;5.13;;;3.47;;
20241;SDS011;10279;46.388;8.116;2023-03-23T01:40:05;5.53;;;3.23;;
20241;SDS011;10279;46.388;8.116;2023-03-23T01:42:34;3.40;;;3.10;;
20241;SDS011;10279;46.388;8.116;2023-03-23T01:45:21;5.33;;;3.40;;
20241;SDS011;10279;46.388;8.116;2023-03-23T01:47:49;3.40;;;3.10;;
20241;SDS011;10279;46.388;8.116;2023-03-23T01:50:21;3.60;;;3.23;;
20241;SDS011;10279;46.388;8.116;2023-03-23T01:52:48;3.70;;;3.40;;
20241;SDS011;10279;46.388;8.116;2023-03-23T01:55:16;3.43;;;2.83;;
20241;SDS011;10279;46.388;8.116;2023-03-23T01:57:43;5.70;;;3.40;;
20241;SDS011;10279;46.388;8.116;2023-03-23T02:00:09;4.27;;;2.93;;
20241;SDS011;10279;46.388;8.116;2023-03-23T02:02:43;3.57;;;2.60;;
20241;SDS011;10279;46.388;8.116;2023-03-23T02:05:12;3.77;;;3.23;;
20241;SDS011;10279;46.388;8.116;2023-03-23T02:07:39;4.83;;;2.97;;
20241;SDS011;10279;46.388;8.116;2023-03-23T02:10:06;3.40;;;3.10;;
20241;SDS011;10279;46.388;8.116;2023-03-23T02:12:32;5.47;;;3.33;;
20241;SDS011;10279;46.388;8.116;2023-03-23T02:14:59;5.00;;;3.10;;
20241;SDS011;10279;46.388;8.116;2023-03-23T02:17:48;4.90;;;3.53;;
20241;SDS011;10279;46.388;8.116;2023-03-23T02:28:05;4.57;;;3.60;;
20241;SDS011;10279;46.388;8.116;2023-03-23T02:30:43;5.57;;;3.63;;
20241;SDS011;10279;46.388;8.116;2023-03-23T02:35:53;3.90;;;3.50;;
20241;SDS011;10279;46.388;8.116;2023-03-23T02:38:43;5.30;;;3.53;;
20241;SDS011;10279;46.388;8.116;2023-03-23T02:41:07;4.07;;;3.53;;
20241;SDS011;10279;46.388;8.116;2023-03-23T02:43:44;3.90;;;3.50;;
20241;SDS011;10279;46.388;8.116;2023-03-23T02:46:11;4.67;;;3.17;;
20241;SDS011;10279;46.388;8.116;2023-03-23T02:48:38;3.77;;;3.20;;
20241;SDS011;10279;46.388;8.116;2023-03-23T02:51:06;5.77;;;3.60;;
20241;SDS011;10279;46.388;8.116;2023-03-23T02:53:36;4.10;;;3.67;;
20241;SDS011;10279;46.388;8.116;2023-03-23T02:56:03;3.93;;;3.50;;
20241;SDS011;10279;46.388;8.116;2023-03-23T02:58:30;4.37;;;3.47;;
20241;SDS011;10279;46.388;8.116;2023-03-23T03:00:56;4.60;;;3.33;;
20241;SDS011;10279;46.388;8.116;2023-03-23T03:03:26;4.23;;;3.53;;
20241;SDS011;10279;46.388;8.116;2023-03-23T03:10:54;3.80;;;3.30;;
20241;SDS011;10279;46.388;8.116;2023-03-23T03:18:47;4.77;;;3.40;;
20241;SDS011;10279;46.388;8.116;2023-03-23T03:21:16;4.40;;;3.93;;
20241;SDS011;10279;46.388;8.116;2023-03-23T03:23:45;4.77;;;4.17;;
20241;SDS011;10279;46.388;8.116;2023-03-23T03:26:14;4.80;;;3.90;;
20241;SDS011;10279;46.388;8.116;2023-03-23T03:28:46;4.43;;;3.70;;
20241;SDS011;10279;46.388;8.116;2023-03-23T03:31:17;5.93;;;4.10;;
20241;SDS011;10279;46.388;8.116;2023-03-23T03:33:44;5.13;;;3.70;;
20241;SDS011;10279;46.388;8.116;2023-03-23T03:36:19;5.10;;;4.13;;
20241;SDS011;10279;46.388;8.116;2023-03-23T03:38:47;5.23;;;3.73;;
20241;SDS011;10279;46.388;8.116;2023-03-23T03:41:14;5.10;;;3.93;;
20241;SDS011;10279;46.388;8.116;2023-03-23T03:43:40;5.03;;;4.40;;
20241;SDS011;10279;46.388;8.116;2023-03-23T03:46:06;4.80;;;4.13;;
20241;SDS011;10279;46.388;8.116;2023-03-23T03:48:33;4.97;;;4.47;;
20241;SDS011;10279;46.388;8.116;2023-03-23T03:50:59;5.77;;;4.00;;
20241;SDS011;10279;46.388;8.116;2023-03-23T03:53:27;5.20;;;4.27;;
20241;SDS011;10279;46.388;8.116;2023-03-23T03:55:53;4.83;;;3.73;;
20241;SDS011;10279;46.388;8.116;2023-03-23T03:58:28;3.97;;;3.57;;
20241;SDS011;10279;46.388;8.116;2023-03-23T04:00:57;4.60;;;4.07;;
20241;SDS011;10279;46.388;8.116;2023-03-23T04:03:24;6.53;;;3.87;;
20241;SDS011;10279;46.388;8.116;2023-03-23T04:05:52;5.87;;;4.30;;
20241;SDS011;10279;46.388;8.116;2023-03-23T04:08:20;4.27;;;3.87;;
20241;SDS011;10279;46.388;8.116;2023-03-23T04:10:47;5.90;;;4.90;;
20241;SDS011;10279;46.388;8.116;2023-03-23T04:13:13;4.77;;;4.10;;
20241;SDS011;10279;46.388;8.116;2023-03-23T04:15:40;4.50;;;4.10;;
20241;SDS011;10279;46.388;8.116;2023-03-23T04:18:06;5.33;;;4.10;;
20241;SDS011;10279;46.388;8.116;2023-03-23T04:20:33;6.43;;;4.10;;
20241;SDS011;10279;46.388;8.116;2023-03-23T04:23:00;4.80;;;4.20;;
20241;SDS011;10279;46.388;8.116;2023-03-23T04:25:27;5.50;;;3.90;;
20241;SDS011;10279;46.388;8.116;2023-03-23T04:27:53;4.47;;;4.07;;
20241;SDS011;10279;46.388;8.116;2023-03-23T04:30:20;5.63;;;3.97;;
20241;SDS011;10279;46.388;8.116;2023-03-23T04:32:47;5.90;;;4.27;;
20241;SDS011;10279;46.388;8.116;2023-03-23T04:35:16;5.67;;;3.90;;
20241;SDS011;10279;46.388;8.116;2023-03-23T04:37:43;7.73;;;4.47;;
20241;SDS011;10279;46.388;8.116;2023-03-23T04:40:09;6.03;;;3.77;;
20241;SDS011;10279;46.388;8.116;2023-03-23T04:42:38;5.57;;;4.20;;
20241;SDS011;10279;46.388;8.116;2023-03-23T04:45:08;5.13;;;4.43;;
20241;SDS011;10279;46.388;8.116;2023-03-23T04:47:35;6.00;;;4.40;;
20241;SDS011;10279;46.388;8.116;2023-03-23T04:50:08;5.53;;;3.90;;
20241;SDS011;10279;46.388;8.116;2023-03-23T04:52:40;7.03;;;4.50;;
20241;SDS011;10279;46.388;8.116;2023-03-23T04:55:10;4.80;;;4.20;;
20241;SDS011;10279;46.388;8.116;2023-03-23T04:57:37;4.37;;;3.80;;
20241;SDS011;10279;46.388;8.116;2023-03-23T05:00:04;5.27;;;4.67;;
20241;SDS011;10279;46.388;8.116;2023-03-23T05:02:37;5.03;;;4.30;;
20241;SDS011;10279;46.388;8.116;2023-03-23T05:05:10;6.20;;;4.07;;
20241;SDS011;10279;46.388;8.116;2023-03-23T05:07:38;6.50;;;5.70;;
20241;SDS011;10279;46.388;8.116;2023-03-23T05:10:05;5.67;;;5.03;;
20241;SDS011;10279;46.388;8.116;2023-03-23T05:12:33;6.40;;;4.90;;
20241;SDS011;10279;46.388;8.116;2023-03-23T05:14:59;6.57;;;5.07;;
20241;SDS011;10279;46.388;8.116;2023-03-23T05:17:26;6.63;;;5.03;;
20241;SDS011;10279;46.388;8.116;2023-03-23T05:19:52;6.47;;;4.63;;
20241;SDS011;10279;46.388;8.116;2023-03-23T05:22:19;5.73;;;4.50;;
20241;SDS011;10279;46.388;8.116;2023-03-23T05:24:48;6.63;;;5.20;;
20241;SDS011;10279;46.388;8.116;2023-03-23T05:27:16;7.23;;;5.07;;
20241;SDS011;10279;46.388;8.116;2023-03-23T05:29:47;7.40;;;5.30;;
20241;SDS011;10279;46.388;8.116;2023-03-23T05:32:14;5.37;;;4.30;;
20241;SDS011;10279;46.388;8.116;2023-03-23T05:34:41;6.13;;;4.67;;
20241;SDS011;10279;46.388;8.116;2023-03-23T05:37:08;6.10;;;4.77;;
20241;SDS011;10279;46.388;8.116;2023-03-23T05:39:35;5.53;;;4.63;;
20241;SDS011;10279;46.388;8.116;2023-03-23T05:42:02;3.90;;;3.40;;
20241;SDS011;10279;46.388;8.116;2023-03-23T05:44:29;4.30;;;3.87;;
20241;SDS011;10279;46.388;8.116;2023-03-23T05:46:55;6.77;;;4.13;;
20241;SDS011;10279;46.388;8.116;2023-03-23T05:49:21;5.90;;;4.17;;
20241;SDS011;10279;46.388;8.116;2023-03-23T05:51:48;4.57;;;4.10;;
20241;SDS011;10279;46.388;8.116;2023-03-23T05:54:15;4.80;;;4.00;;
20241;SDS011;10279;46.388;8.116;2023-03-23T05:56:42;5.50;;;3.83;;
20241;SDS011;10279;46.388;8.116;2023-03-23T05:59:08;6.77;;;4.27;;
20241;SDS011;10279;46.388;8.116;2023-03-23T06:01:36;6.57;;;4.63;;
20241;SDS011;10279;46.388;8.116;2023-03-23T06:04:03;9.03;;;4.13;;
20241;SDS011;10279;46.388;8.116;2023-03-23T06:06:29;4.67;;;3.90;;
20241;SDS011;10279;46.388;8.116;2023-03-23T06:08:57;5.13;;;4.63;;
20241;SDS011;10279;46.388;8.116;2023-03-23T06:11:24;5.17;;;4.20;;
20241;SDS011;10279;46.388;8.116;2023-03-23T06:13:51;4.37;;;3.97;;
20241;SDS011;10279;46.388;8.116;2023-03-23T06:16:18;4.43;;;3.90;;
20241;SDS011;10279;46.388;8.116;2023-03-23T06:18:45;7.23;;;4.33;;
20241;SDS011;10279;46.388;8.116;2023-03-23T06:21:11;6.63;;;4.40;;
20241;SDS011;10279;46.388;8.116;2023-03-23T06:23:38;6.50;;;4.00;;
20241;SDS011;10279;46.388;8.116;2023-03-23T06:26:06;6.07;;;5.07;;
20241;SDS011;10279;46.388;8.116;2023-03-23T06:28:32;5.43;;;4.17;;
20241;SDS011;10279;46.388;8.116;2023-03-23T06:31:02;4.80;;;4.27;;
20241;SDS011;10279;46.388;8.116;2023-03-23T06:33:32;6.30;;;4.40;;
20241;SDS011;10279;46.388;8.116;2023-03-23T06:35:59;5.67;;;5.07;;
20241;SDS011;10279;46.388;8.116;2023-03-23T06:38:25;5.67;;;4.40;;
20241;SDS011;10279;46.388;8.116;2023-03-23T06:40:55;5.83;;;3.97;;
20241;SDS011;10279;46.388;8.116;2023-03-23T06:43:22;5.23;;;4.17;;
20241;SDS011;10279;46.388;8.116;2023-03-23T06:45:49;6.27;;;4.73;;
20241;SDS011;10279;46.388;8.116;2023-03-23T06:48:16;4.83;;;4.23;;
20241;SDS011;10279;46.388;8.116;2023-03-23T06:50:43;4.23;;;3.83;;
20241;SDS011;10279;46.388;8.116;2023-03-23T06:53:13;5.43;;;4.27;;
20241;SDS011;10279;46.388;8.116;2023-03-23T06:55:39;4.63;;;4.13;;
20241;SDS011;10279;46.388;8.116;2023-03-23T06:58:05;5.40;;;4.50;;
20241;SDS011;10279;46.388;8.116;2023-03-23T07:00:32;6.00;;;4.37;;
20241;SDS011;10279;46.388;8.116;2023-03-23T07:02:59;5.63;;;4.90;;
20241;SDS011;10279;46.388;8.116;2023-03-23T07:05:25;9.20;;;5.13;;
20241;SDS011;10279;46.388;8.116;2023-03-23T07:07:51;6.63;;;5.27;;
20241;SDS011;10279;46.388;8.116;2023-03-23T07:10:18;5.20;;;4.70;;
20241;SDS011;10279;46.388;8.116;2023-03-23T07:12:44;5.87;;;4.73;;
20241;SDS011;10279;46.388;8.116;2023-03-23T07:15:11;5.50;;;4.60;;
20241;SDS011;10279;46.388;8.116;2023-03-23T07:17:38;10.83;;;7.93;;
20241;SDS011;10279;46.388;8.116;2023-03-23T07:20:05;6.23;;;5.03;;
20241;SDS011;10279;46.388;8.116;2023-03-23T07:22:32;5.20;;;4.03;;
20241;SDS011;10279;46.388;8.116;2023-03-23T07:24:58;9.80;;;5.87;;
20241;SDS011;10279;46.388;8.116;2023-03-23T07:27:25;6.83;;;5.07;;
20241;SDS011;10279;46.388;8.116;2023-03-23T07:29:51;6.53;;;4.87;;
20241;SDS011;10279;46.388;8.116;2023-03-23T07:32:17;4.57;;;4.13;;
20241;SDS011;10279;46.388;8.116;2023-03-23T07:34:44;5.93;;;4.60;;
20241;SDS011;10279;46.388;8.116;2023-03-23T07:37:13;4.80;;;4.20;;
20241;SDS011;10279;46.388;8.116;2023-03-23T07:39:41;5.90;;;4.80;;
20241;SDS011;10279;46.388;8.116;2023-03-23T07:42:07;5.40;;;4.07;;
20241;SDS011;10279;46.388;8.116;2023-03-23T07:44:34;6.80;;;4.40;;
20241;SDS011;10279;46.388;8.116;2023-03-23T07:47:00;8.83;;;4.83;;
20241;SDS011;10279;46.388;8.116;2023-03-23T07:49:26;5.47;;;4.47;;
20241;SDS011;10279;46.388;8.116;2023-03-23T07:51:54;6.77;;;4.40;;
20241;SDS011;10279;46.388;8.116;2023-03-23T07:54:21;6.77;;;4.57;;
20241;SDS011;10279;46.388;8.116;2023-03-23T07:56:47;4.70;;;4.20;;
20241;SDS011;10279;46.388;8.116;2023-03-23T07:59:13;5.17;;;4.17;;
20241;SDS011;10279;46.388;8.116;2023-03-23T08:01:40;5.13;;;4.37;;
20241;SDS011;10279;46.388;8.116;2023-03-23T08:04:06;5.00;;;4.20;;
20241;SDS011;10279;46.388;8.116;2023-03-23T08:06:33;5.50;;;4.50;;
20241;SDS011;10279;46.388;8.116;2023-03-23T08:09:00;4.23;;;3.80;;
20241;SDS011;10279;46.388;8.116;2023-03-23T08:11:27;5.10;;;4.37;;
20241;SDS011;10279;46.388;8.116;2023-03-23T08:13:53;5.73;;;3.97;;
20241;SDS011;10279;46.388;8.116;2023-03-23T08:16:19;4.63;;;3.57;;
20241;SDS011;10279;46.388;8.116;2023-03-23T08:18:45;6.70;;;3.93;;
20241;SDS011;10279;46.388;8.116;2023-03-23T08:21:15;5.57;;;3.90;;
20241;SDS011;10279;46.388;8.116;2023-03-23T08:23:41;3.37;;;3.00;;
20241;SDS011;10279;46.388;8.116;2023-03-23T08:26:08;3.93;;;3.53;;
20241;SDS011;10279;46.388;8.116;2023-03-23T08:28:35;4.07;;;3.53;;
20241;SDS011;10279;46.388;8.116;2023-03-23T08:31:08;4.07;;;3.33;;
20241;SDS011;10279;46.388;8.116;2023-03-23T08:33:35;4.13;;;3.50;;
20241;SDS011;10279;46.388;8.116;2023-03-23T08:36:02;4.10;;;3.00;;
20241;SDS011;10279;46.388;8.116;2023-03-23T08:38:28;6.83;;;3.57;;
20241;SDS011;10279;46.388;8.116;2023-03-23T08:40:59;3.97;;;3.00;;
20241;SDS011;10279;46.388;8.116;2023-03-23T08:43:25;4.67;;;3.50;;
20241;SDS011;10279;46.388;8.116;2023-03-23T08:45:52;4.70;;;3.03;;
20241;SDS011;10279;46.388;8.116;2023-03-23T08:48:19;5.30;;;2.80;;
20241;SDS011;10279;46.388;8.116;2023-03-23T08:50:45;3.90;;;3.50;;
20241;SDS011;10279;46.388;8.116;2023-03-23T08:53:15;3.17;;;2.83;;
20241;SDS011;10279;46.388;8.116;2023-03-23T08:55:41;22.80;;;3.93;;
20241;SDS011;10279;46.388;8.116;2023-03-23T08:58:08;144.13;;;13.90;;
20241;SDS011;10279;46.388;8.116;2023-03-23T09:00:34;54.23;;;6.23;;
20241;SDS011;10279;46.388;8.116;2023-03-23T09:03:00;55.33;;;5.93;;
20241;SDS011;10279;46.388;8.116;2023-03-23T09:05:28;10.30;;;3.07;;
20241;SDS011;10279;46.388;8.116;2023-03-23T09:07:56;57.63;;;6.57;;
20241;SDS011;10279;46.388;8.116;2023-03-23T09:10:24;9.10;;;2.67;;
20241;SDS011;10279;46.388;8.116;2023-03-23T09:12:51;2.10;;;1.90;;
20241;SDS011;10279;46.388;8.116;2023-03-23T09:15:18;3.13;;;2.17;;
20241;SDS011;10279;46.388;8.116;2023-03-23T09:17:46;2.57;;;1.73;;
20241;SDS011;10279;46.388;8.116;2023-03-23T09:20:13;2.10;;;1.90;;
20241;SDS011;10279;46.388;8.116;2023-03-23T09:22:41;2.87;;;1.83;;
20241;SDS011;10279;46.388;8.116;2023-03-23T09:25:09;3.03;;;1.97;;
20241;SDS011;10279;46.388;8.116;2023-03-23T09:27:36;2.40;;;2.20;;
20241;SDS011;10279;46.388;8.116;2023-03-23T09:30:08;135.43;;;11.20;;
20241;SDS011;10279;46.388;8.116;2023-03-23T09:32:35;58.47;;;6.07;;
20241;SDS011;10279;46.388;8.116;2023-03-23T09:35:03;6.03;;;2.27;;
20241;SDS011;10279;46.388;8.116;2023-03-23T09:37:29;6.10;;;1.97;;
20241;SDS011;10279;46.388;8.116;2023-03-23T09:39:55;1.90;;;1.70;;
20241;SDS011;10279;46.388;8.116;2023-03-23T09:50:14;1.30;;;1.10;;
20241;SDS011;10279;46.388;8.116;2023-03-23T09:52:43;1.80;;;1.60;;
20241;SDS011;10279;46.388;8.116;2023-03-23T09:55:11;1.83;;;1.67;;
20241;SDS011;10279;46.388;8.116;2023-03-23T09:57:59;1.37;;;1.27;;
20241;SDS011;10279;46.388;8.116;2023-03-23T10:00:35;1.60;;;1.13;;
20241;SDS011;10279;46.388;8.116;2023-03-23T10:03:05;1.20;;;1.10;;
20241;SDS011;10279;46.388;8.116;2023-03-23T10:05:39;1.50;;;1.40;;
20241;SDS011;10279;46.388;8.116;2023-03-23T10:08:49;2.17;;;1.20;;
20241;SDS011;10279;46.388;8.116;2023-03-23T10:13:27;4.10;;;1.30;;
20241;SDS011;10279;46.388;8.116;2023-03-23T10:15:54;1.33;;;1.23;;
20241;SDS011;10279;46.388;8.116;2023-03-23T10:18:26;1.50;;;1.40;;
20241;SDS011;10279;46.388;8.116;2023-03-23T10:25:58;1.43;;;1.30;;
20241;SDS011;10279;46.388;8.116;2023-03-23T10:30:59;1.97;;;0.90;;
20241;SDS011;10279;46.388;8.116;2023-03-23T10:35:56;1.23;;;1.03;;
20241;SDS011;10279;46.388;8.116;2023-03-23T10:38:36;1.60;;;1.20;;
20241;SDS011;10279;46.388;8.116;2023-03-23T10:41:09;1.40;;;1.10;;
20241;SDS011;10279;46.388;8.116;2023-03-23T10:43:46;1.47;;;1.30;;
20241;SDS011;10279;46.388;8.116;2023-03-23T10:46:21;1.17;;;1.13;;
20241;SDS011;10279;46.388;8.116;2023-03-23T10:48:48;1.40;;;1.10;;
20241;SDS011;10279;46.388;8.116;2023-03-23T10:51:16;3.73;;;1.30;;
20241;SDS011;10279;46.388;8.116;2023-03-23T10:53:45;2.17;;;1.80;;
20241;SDS011;10279;46.388;8.116;2023-03-23T10:56:23;2.07;;;1.73;;
20241;SDS011;10279;46.388;8.116;2023-03-23T10:58:50;1.83;;;1.40;;
20241;SDS011;10279;46.388;8.116;2023-03-23T11:01:18;1.43;;;1.30;;
20241;SDS011;10279;46.388;8.116;2023-03-23T11:03:45;2.97;;;1.70;;
20241;SDS011;10279;46.388;8.116;2023-03-23T11:06:20;3.33;;;1.60;;
20241;SDS011;10279;46.388;8.116;2023-03-23T11:08:48;3.90;;;1.40;;
20241;SDS011;10279;46.388;8.116;2023-03-23T11:11:17;1.73;;;1.37;;
20241;SDS011;10279;46.388;8.116;2023-03-23T11:13:44;2.53;;;1.67;;
20241;SDS011;10279;46.388;8.116;2023-03-23T11:16:33;2.50;;;1.70;;
20241;SDS011;10279;46.388;8.116;2023-03-23T11:18:59;2.07;;;1.50;;
20241;SDS011;10279;46.388;8.116;2023-03-23T11:21:26;1.20;;;1.10;;
20241;SDS011;10279;46.388;8.116;2023-03-23T11:23:55;2.13;;;1.50;;
20241;SDS011;10279;46.388;8.116;2023-03-23T11:26:31;2.40;;;1.63;;
20241;SDS011;10279;46.388;8.116;2023-03-23T11:29:12;1.50;;;1.30;;
20241;SDS011;10279;46.388;8.116;2023-03-23T11:31:40;0.80;;;0.80;;
20241;SDS011;10279;46.388;8.116;2023-03-23T11:36:37;1.20;;;1.10;;
20241;SDS011;10279;46.388;8.116;2023-03-23T11:41:48;1.10;;;1.00;;
20241;SDS011;10279;46.388;8.116;2023-03-23T11:44:15;1.00;;;0.98;;
20241;SDS011;10279;46.388;8.116;2023-03-23T11:49:15;1.63;;;1.10;;
20241;SDS011;10279;46.388;8.116;2023-03-23T11:51:46;1.63;;;1.00;;
20241;SDS011;10279;46.388;8.116;2023-03-23T11:54:23;2.87;;;1.27;;
20241;SDS011;10279;46.388;8.116;2023-03-23T11:56:52;1.70;;;1.10;;
20241;SDS011;10279;46.388;8.116;2023-03-23T11:59:53;1.47;;;1.30;;
20241;SDS011;10279;46.388;8.116;2023-03-23T12:09:58;1.15;;;1.05;;
20241;SDS011;10279;46.388;8.116;2023-03-23T12:20:21;1.60;;;1.15;;
20241;SDS011;10279;46.388;8.116;2023-03-23T12:23:08;1.50;;;1.33;;
20241;SDS011;10279;46.388;8.116;2023-03-23T12:33:24;1.50;;;1.35;;
20241;SDS011;10279;46.388;8.116;2023-03-23T12:43:52;2.15;;;1.50;;
20241;SDS011;10279;46.388;8.116;2023-03-23T12:56:39;1.40;;;1.10;;
20241;SDS011;10279;46.388;8.116;2023-03-23T12:59:19;1.55;;;1.23;;
20241;SDS011;10279;46.388;8.116;2023-03-23T13:01:48;1.55;;;1.00;;
20241;SDS011;10279;46.388;8.116;2023-03-23T13:04:18;2.22;;;1.08;;
20241;SDS011;10279;46.388;8.116;2023-03-23T13:06:47;1.40;;;0.98;;
20241;SDS011;10279;46.388;8.116;2023-03-23T13:09:38;1.50;;;1.15;;
20241;SDS011;10279;46.388;8.116;2023-03-23T13:12:05;1.10;;;1.00;;
20241;SDS011;10279;46.388;8.116;2023-03-23T13:24:33;1.00;;;0.87;;
20241;SDS011;10279;46.388;8.116;2023-03-23T13:27:02;4.70;;;1.05;;
20241;SDS011;10279;46.388;8.116;2023-03-23T13:29:28;2.28;;;0.80;;
20241;SDS011;10279;46.388;8.116;2023-03-23T13:32:05;1.60;;;0.82;;
20241;SDS011;10279;46.388;8.116;2023-03-23T13:34:32;2.20;;;0.97;;
20241;SDS011;10279;46.388;8.116;2023-03-23T13:37:18;1.00;;;0.90;;
20241;SDS011;10279;46.388;8.116;2023-03-23T13:39:55;1.48;;;0.98;;
20241;SDS011;10279;46.388;8.116;2023-03-23T13:42:24;1.70;;;0.90;;
20241;SDS011;10279;46.388;8.116;2023-03-23T13:49:51;1.77;;;0.95;;
20241;SDS011;10279;46.388;8.116;2023-03-23T13:52:36;3.15;;;1.15;;
20241;SDS011;10279;46.388;8.116;2023-03-23T14:10:44;1.40;;;1.30;;
20241;SDS011;10279;46.388;8.116;2023-03-23T14:16:18;3.63;;;1.20;;
20241;SDS011;10279;46.388;8.116;2023-03-23T14:18:55;2.50;;;1.40;;
20241;SDS011;10279;46.388;8.116;2023-03-23T14:21:35;3.47;;;1.70;;
20241;SDS011;10279;46.388;8.116;2023-03-23T14:24:22;2.00;;;1.27;;
20241;SDS011;10279;46.388;8.116;2023-03-23T14:26:50;1.10;;;1.00;;
20241;SDS011;10279;46.388;8.116;2023-03-23T14:29:17;2.10;;;1.50;;
20241;SDS011;10279;46.388;8.116;2023-03-23T14:31:44;1.90;;;1.40;;
20241;SDS011;10279;46.388;8.116;2023-03-23T14:34:19;1.90;;;1.23;;
20241;SDS011;10279;46.388;8.116;2023-03-23T14:36:46;1.30;;;1.20;;
20241;SDS011;10279;46.388;8.116;2023-03-23T14:39:23;2.20;;;1.30;;
20241;SDS011;10279;46.388;8.116;2023-03-23T14:41:50;1.87;;;1.40;;
20241;SDS011;10279;46.388;8.116;2023-03-23T14:44:23;3.13;;;1.30;;
20241;SDS011;10279;46.388;8.116;2023-03-23T14:46:50;2.13;;;1.70;;
20241;SDS011;10279;46.388;8.116;2023-03-23T14:49:17;2.00;;;1.30;;
20241;SDS011;10279;46.388;8.116;2023-03-23T14:51:50;2.03;;;1.17;;
20241;SDS011;10279;46.388;8.116;2023-03-23T14:54:20;2.03;;;1.07;;
20241;SDS011;10279;46.388;8.116;2023-03-23T14:56:47;1.97;;;1.43;;
20241;SDS011;10279;46.388;8.116;2023-03-23T14:59:13;1.53;;;1.40;;
20241;SDS011;10279;46.388;8.116;2023-03-23T15:01:40;2.03;;;1.40;;
20241;SDS011;10279;46.388;8.116;2023-03-23T15:06:36;3.57;;;1.40;;
20241;SDS011;10279;46.388;8.116;2023-03-23T15:09:05;1.23;;;1.13;;
20241;SDS011;10279;46.388;8.116;2023-03-23T15:11:36;1.27;;;1.17;;
20241;SDS011;10279;46.388;8.116;2023-03-23T15:14:18;1.93;;;1.50;;
20241;SDS011;10279;46.388;8.116;2023-03-23T15:16:46;1.30;;;1.13;;
20241;SDS011;10279;46.388;8.116;2023-03-23T15:19:18;1.90;;;1.10;;
20241;SDS011;10279;46.388;8.116;2023-03-23T15:22:03;2.20;;;1.30;;
20241;SDS011;10279;46.388;8.116;2023-03-23T15:27:07;2.07;;;1.40;;
20241;SDS011;10279;46.388;8.116;2023-03-23T15:29:45;1.30;;;1.17;;
20241;SDS011;10279;46.388;8.116;2023-03-23T15:32:11;1.57;;;1.33;;
20241;SDS011;10279;46.388;8.116;2023-03-23T15:34:38;2.30;;;1.30;;
20241;SDS011;10279;46.388;8.116;2023-03-23T15:37:26;2.03;;;1.37;;
20241;SDS011;10279;46.388;8.116;2023-03-23T15:39:51;2.47;;;1.50;;
20241;SDS011;10279;46.388;8.116;2023-03-23T15:42:22;2.10;;;1.43;;
20241;SDS011;10279;46.388;8.116;2023-03-23T15:44:56;1.50;;;1.40;;
20241;SDS011;10279;46.388;8.116;2023-03-23T15:47:22;2.13;;;1.30;;
20241;SDS011;10279;46.388;8.116;2023-03-23T15:50:01;2.47;;;1.20;;
20241;SDS011;10279;46.388;8.116;2023-03-23T15:52:28;1.80;;;0.93;;
20241;SDS011;10279;46.388;8.116;2023-03-23T15:54:54;1.97;;;1.10;;
20241;SDS011;10279;46.388;8.116;2023-03-23T15:57:20;3.30;;;1.30;;
20241;SDS011;10279;46.388;8.116;2023-03-23T15:59:49;1.80;;;1.30;;
20241;SDS011;10279;46.388;8.116;2023-03-23T16:02:18;1.30;;;1.20;;
20241;SDS011;10279;46.388;8.116;2023-03-23T16:04:48;2.73;;;1.37;;
20241;SDS011;10279;46.388;8.116;2023-03-23T16:07:17;1.93;;;1.20;;
20241;SDS011;10279;46.388;8.116;2023-03-23T16:09:46;3.17;;;1.40;;
20241;SDS011;10279;46.388;8.116;2023-03-23T16:12:13;1.30;;;1.20;;
20241;SDS011;10279;46.388;8.116;2023-03-23T16:14:41;1.20;;;1.10;;
20241;SDS011;10279;46.388;8.116;2023-03-23T16:17:09;2.93;;;1.40;;
20241;SDS011;10279;46.388;8.116;2023-03-23T16:19:39;3.90;;;1.23;;
20241;SDS011;10279;46.388;8.116;2023-03-23T16:22:07;1.37;;;1.27;;
20241;SDS011;10279;46.388;8.116;2023-03-23T16:24:34;2.17;;;1.10;;
20241;SDS011;10279;46.388;8.116;2023-03-23T16:27:02;3.47;;;1.00;;
20241;SDS011;10279;46.388;8.116;2023-03-23T16:29:30;1.20;;;1.10;;
20241;SDS011;10279;46.388;8.116;2023-03-23T16:32:17;2.40;;;1.33;;
20241;SDS011;10279;46.388;8.116;2023-03-23T16:34:45;4.00;;;1.50;;
20241;SDS011;10279;46.388;8.116;2023-03-23T16:37:12;1.83;;;1.07;;
20241;SDS011;10279;46.388;8.116;2023-03-23T16:39:39;1.30;;;1.10;;
20241;SDS011;10279;46.388;8.116;2023-03-23T16:42:07;2.37;;;1.20;;
20241;SDS011;10279;46.388;8.116;2023-03-23T16:44:34;1.27;;;1.00;;
20241;SDS011;10279;46.388;8.116;2023-03-23T16:47:02;3.13;;;1.43;;
20241;SDS011;10279;46.388;8.116;2023-03-23T16:49:29;1.83;;;1.17;;
20241;SDS011;10279;46.388;8.116;2023-03-23T16:51:56;2.73;;;1.77;;
20241;SDS011;10279;46.388;8.116;2023-03-23T16:54:24;2.20;;;1.20;;
20241;SDS011;10279;46.388;8.116;2023-03-23T16:56:51;1.20;;;1.10;;
20241;SDS011;10279;46.388;8.116;2023-03-23T16:59:19;1.83;;;1.20;;
20241;SDS011;10279;46.388;8.116;2023-03-23T17:01:46;1.30;;;1.20;;
20241;SDS011;10279;46.388;8.116;2023-03-23T17:04:14;1.20;;;1.03;;
20241;SDS011;10279;46.388;8.116;2023-03-23T17:06:41;1.70;;;1.37;;
20241;SDS011;10279;46.388;8.116;2023-03-23T17:09:09;1.40;;;1.30;;